Time;durP1;ratioP1;P1;durP2;ratioP2;P2;SDS_P1;SDS_P2;PMS_P1;PMS_P2;Temp;Humidity;BMP_temperature;BMP_pressure;BME280_temperature;BME280_humidity;BME280_pressure;Samples;Min_cycle;Max_cycle;Signal;HPM_P1;HPM_P2
2020/12/24 00:01:26;;;;;;;3.22;1.45;;;14.20;99.90;;;;;;5095185;28;20271;-81
2020/12/24 00:03:52;;;;;;;3.85;2.10;;;14.20;99.90;;;;;;5095367;28;20193;-80
2020/12/24 00:06:19;;;;;;;3.78;1.95;;;14.20;99.90;;;;;;5083194;28;20186;-80
2020/12/24 00:08:46;;;;;;;9.45;1.70;;;14.20;99.90;;;;;;5087372;28;20622;-80
2020/12/24 00:11:12;;;;;;;5.20;1.60;;;14.10;99.90;;;;;;5095190;28;20201;-80
2020/12/24 00:13:39;;;;;;;5.03;1.48;;;14.00;99.90;;;;;;5093229;28;20186;-80
2020/12/24 00:16:05;;;;;;;7.72;1.50;;;13.90;99.90;;;;;;5095186;28;20205;-80
2020/12/24 00:18:31;;;;;;;7.20;1.40;;;13.90;99.90;;;;;;5094867;28;20225;-80
2020/12/24 00:20:57;;;;;;;4.63;1.90;;;14.00;99.90;;;;;;5094999;28;20201;-80
2020/12/24 00:23:24;;;;;;;2.38;1.40;;;14.00;99.90;;;;;;5094041;28;20551;-80
2020/12/24 00:25:50;;;;;;;2.53;1.02;;;14.00;99.90;;;;;;5074759;28;20194;-80
2020/12/24 00:28:16;;;;;;;10.93;1.70;;;13.90;99.90;;;;;;5074791;28;20206;-80
2020/12/24 00:30:43;;;;;;;3.72;1.40;;;13.70;99.90;;;;;;5074505;28;20217;-80
2020/12/24 00:33:09;;;;;;;5.80;1.40;;;13.80;99.90;;;;;;5078069;28;20224;-80
2020/12/24 00:35:36;;;;;;;6.03;2.00;;;13.70;99.90;;;;;;5075402;28;20273;-80
2020/12/24 00:38:02;;;;;;;6.05;1.38;;;13.60;99.90;;;;;;5075310;28;20218;-80
2020/12/24 00:40:29;;;;;;;3.20;1.70;;;13.70;99.90;;;;;;5074312;28;20198;-80
2020/12/24 00:42:55;;;;;;;2.05;1.15;;;13.70;99.90;;;;;;5075556;28;20199;-80
2020/12/24 00:45:21;;;;;;;5.97;1.65;;;13.70;99.90;;;;;;5090341;28;20645;-80
2020/12/24 00:47:50;;;;;;;3.70;1.42;;;13.70;99.90;;;;;;5094518;28;20194;-81
2020/12/24 00:50:17;;;;;;;3.83;1.40;;;13.80;99.90;;;;;;5094404;28;20189;-80
2020/12/24 00:52:43;;;;;;;10.57;1.67;;;13.80;99.90;;;;;;5075451;28;20190;-80
2020/12/24 00:55:09;;;;;;;3.78;1.05;;;13.80;99.90;;;;;;5085548;28;20197;-80
2020/12/24 00:57:35;;;;;;;3.75;1.40;;;13.80;99.90;;;;;;5094129;28;20221;-80
2020/12/24 01:00:01;;;;;;;6.20;1.42;;;13.70;99.90;;;;;;5094186;28;20228;-80
2020/12/24 01:02:28;;;;;;;5.55;2.35;;;13.60;99.90;;;;;;5093913;28;20218;-80
2020/12/24 01:04:55;;;;;;;6.22;1.95;;;13.70;99.90;;;;;;5094205;28;20205;-80
2020/12/24 01:07:21;;;;;;;5.95;1.60;;;13.50;99.90;;;;;;5093703;28;20543;-80
2020/12/24 01:09:47;;;;;;;6.30;2.10;;;13.40;99.90;;;;;;5093984;28;20241;-80
2020/12/24 01:12:14;;;;;;;5.40;2.17;;;13.30;99.90;;;;;;5093700;28;20204;-80
2020/12/24 01:14:40;;;;;;;8.52;1.77;;;13.30;99.90;;;;;;5094008;28;20194;-80
2020/12/24 01:17:06;;;;;;;4.75;1.85;;;13.30;99.90;;;;;;5094097;28;20189;-80
2020/12/24 01:19:32;;;;;;;2.67;1.58;;;13.30;99.90;;;;;;5093814;28;20232;-80
2020/12/24 01:21:59;;;;;;;6.57;1.90;;;13.20;99.90;;;;;;5094197;28;20543;-80
2020/12/24 01:24:25;;;;;;;7.80;1.80;;;13.30;99.90;;;;;;5093795;28;20267;-80
2020/12/24 01:26:52;;;;;;;3.85;1.60;;;13.30;99.90;;;;;;5093942;28;20201;-80
2020/12/24 01:29:18;;;;;;;7.15;1.55;;;13.30;99.90;;;;;;5093977;28;20644;-80
2020/12/24 01:31:45;;;;;;;3.35;1.20;;;13.20;99.90;;;;;;5093645;28;20217;-80
2020/12/24 01:34:11;;;;;;;5.50;1.80;;;13.10;99.90;;;;;;5093732;28;20194;-81
2020/12/24 01:36:38;;;;;;;6.82;1.95;;;13.20;99.90;;;;;;5093578;28;20189;-80
2020/12/24 01:39:05;;;;;;;2.85;1.60;;;13.20;99.90;;;;;;5092242;28;20224;-80
2020/12/24 01:41:31;;;;;;;6.68;2.10;;;13.10;99.90;;;;;;5093631;28;20243;-80
2020/12/24 01:43:57;;;;;;;6.85;1.60;;;13.20;99.90;;;;;;5093553;28;20194;-80
2020/12/24 01:46:24;;;;;;;3.85;1.52;;;13.20;99.90;;;;;;5093231;28;20624;-80
2020/12/24 01:48:50;;;;;;;5.65;1.63;;;13.20;99.90;;;;;;5084397;28;20187;-80
2020/12/24 01:51:25;;;;;;;6.88;1.85;;;13.20;99.90;;;;;;5073115;28;20548;-80
2020/12/24 01:53:52;;;;;;;5.18;1.80;;;13.10;99.90;;;;;;5073403;28;20198;-80
2020/12/24 01:56:19;;;;;;;2.97;1.55;;;13.10;99.90;;;;;;5072563;28;20222;-80
2020/12/24 01:58:46;;;;;;;5.22;1.40;;;13.10;99.90;;;;;;5080329;28;20262;-80
2020/12/24 02:01:12;;;;;;;6.85;1.80;;;12.90;99.90;;;;;;5093245;28;20221;-81
2020/12/24 02:03:38;;;;;;;4.68;1.80;;;12.90;99.90;;;;;;5088354;28;20633;-80
2020/12/24 02:06:05;;;;;;;9.68;1.73;;;12.90;99.90;;;;;;5073457;28;20202;-81
2020/12/24 02:08:32;;;;;;;7.25;1.95;;;12.90;99.90;;;;;;5073093;28;20535;-80
2020/12/24 02:10:59;;;;;;;7.65;1.65;;;13.10;99.90;;;;;;5073103;28;20255;-80
2020/12/24 02:13:26;;;;;;;4.75;1.85;;;13.10;99.90;;;;;;5073719;28;20189;-81
2020/12/24 02:15:52;;;;;;;5.18;1.38;;;13.10;99.90;;;;;;5073350;28;20198;-80
2020/12/24 02:18:18;;;;;;;9.13;3.25;;;13.20;99.90;;;;;;5072947;28;20222;-80
2020/12/24 02:20:45;;;;;;;5.68;2.38;;;13.20;99.90;;;;;;5073135;28;20205;-80
2020/12/24 02:23:12;;;;;;;6.18;1.73;;;13.30;99.90;;;;;;5077461;28;20185;-81
2020/12/24 02:25:40;;;;;;;5.00;1.67;;;13.30;99.90;;;;;;5093237;28;20544;-80
2020/12/24 02:28:06;;;;;;;5.05;1.50;;;13.20;99.90;;;;;;5092306;28;20185;-81
2020/12/24 02:30:33;;;;;;;5.72;2.13;;;13.30;99.90;;;;;;5092938;28;20197;-81
2020/12/24 02:32:59;;;;;;;7.55;3.05;;;13.30;99.90;;;;;;5090647;28;20213;-81
2020/12/24 02:35:25;;;;;;;8.88;2.38;;;13.30;99.90;;;;;;5092700;28;20200;-80
2020/12/24 02:37:52;;;;;;;5.28;1.52;;;13.30;99.90;;;;;;5093059;28;20599;-80
2020/12/24 02:40:19;;;;;;;6.20;1.65;;;13.20;99.90;;;;;;5092911;28;20197;-80
2020/12/24 02:42:45;;;;;;;10.35;1.88;;;13.30;99.90;;;;;;5091074;28;20194;-81
2020/12/24 02:45:11;;;;;;;5.97;1.85;;;13.30;99.90;;;;;;5072954;28;20194;-81
2020/12/24 02:47:37;;;;;;;4.63;1.48;;;13.20;99.90;;;;;;5072935;28;20331;-80
2020/12/24 02:50:05;;;;;;;4.03;1.52;;;13.30;99.90;;;;;;5073031;28;20649;-80
2020/12/24 02:52:31;;;;;;;7.70;2.13;;;13.20;99.90;;;;;;5072670;28;20203;-81
2020/12/24 02:54:59;;;;;;;4.05;1.70;;;13.20;99.90;;;;;;5072668;28;20205;-80
2020/12/24 02:57:25;;;;;;;4.97;1.67;;;13.30;99.90;;;;;;5072488;28;20226;-80
2020/12/24 02:59:51;;;;;;;3.97;1.35;;;13.30;99.90;;;;;;5072486;28;20236;-80
2020/12/24 03:02:17;;;;;;;4.13;1.75;;;13.20;99.90;;;;;;5072492;28;20218;-80
2020/12/24 03:04:43;;;;;;;3.28;1.30;;;13.10;99.90;;;;;;5092396;28;20194;-80
2020/12/24 03:07:10;;;;;;;6.25;2.20;;;13.20;99.90;;;;;;5092790;28;20197;-81
2020/12/24 03:09:36;;;;;;;4.95;1.77;;;13.10;99.90;;;;;;5094844;28;20193;-80
2020/12/24 03:12:04;;;;;;;8.68;1.83;;;13.00;99.90;;;;;;5096422;28;20198;-81
2020/12/24 03:14:30;;;;;;;8.77;2.20;;;12.80;99.90;;;;;;5078332;28;20198;-80
2020/12/24 03:16:57;;;;;;;8.90;2.00;;;12.90;99.90;;;;;;5076049;28;20191;-80
2020/12/24 03:19:23;;;;;;;3.92;1.52;;;13.00;99.90;;;;;;5075930;28;20226;-81
2020/12/24 03:21:49;;;;;;;5.85;1.90;;;13.10;99.90;;;;;;5083591;28;20219;-81
2020/12/24 03:24:15;;;;;;;4.72;2.10;;;13.00;99.90;;;;;;5096062;28;20193;-81
2020/12/24 03:26:42;;;;;;;5.85;1.88;;;13.00;99.90;;;;;;5077037;28;20556;-80
2020/12/24 03:29:09;;;;;;;7.43;2.25;;;13.10;99.90;;;;;;5075875;28;20190;-80
2020/12/24 03:31:35;;;;;;;3.42;1.30;;;12.90;99.90;;;;;;5075610;28;20236;-81
2020/12/24 03:34:01;;;;;;;8.40;1.90;;;12.90;99.90;;;;;;5075690;28;20307;-81
2020/12/24 03:36:27;;;;;;;4.32;1.88;;;12.80;99.90;;;;;;5091237;28;20235;-80
2020/12/24 03:38:54;;;;;;;11.55;1.88;;;12.80;99.90;;;;;;5095714;28;20622;-81
2020/12/24 03:41:20;;;;;;;9.07;2.05;;;12.80;99.90;;;;;;5095927;28;20201;-81
2020/12/24 03:43:46;;;;;;;10.70;2.33;;;13.00;99.90;;;;;;5088824;28;20186;-81
2020/12/24 03:46:13;;;;;;;8.77;3.25;;;12.90;99.90;;;;;;5088642;28;20190;-80
2020/12/24 03:48:39;;;;;;;9.20;2.05;;;12.80;99.90;;;;;;5095542;28;20657;-81
2020/12/24 03:51:05;;;;;;;3.83;1.80;;;12.70;99.90;;;;;;5095754;28;20236;-80
2020/12/24 03:53:32;;;;;;;6.63;2.00;;;12.80;99.90;;;;;;5084291;28;20256;-81
2020/12/24 03:55:59;;;;;;;11.95;1.60;;;12.60;99.90;;;;;;5086087;28;20228;-81
2020/12/24 03:58:25;;;;;;;6.53;2.00;;;12.60;99.90;;;;;;5085035;28;20567;-81
2020/12/24 04:00:51;;;;;;;4.72;1.88;;;12.80;99.90;;;;;;5075405;28;20192;-81
2020/12/24 04:03:18;;;;;;;9.00;1.70;;;12.80;99.90;;;;;;5082208;28;20190;-81
2020/12/24 04:05:45;;;;;;;6.15;1.70;;;12.70;99.90;;;;;;5080657;28;20193;-80
2020/12/24 04:08:12;;;;;;;5.97;1.60;;;12.80;99.90;;;;;;5074950;28;20190;-80
2020/12/24 04:10:38;;;;;;;6.03;2.08;;;12.70;99.90;;;;;;5074944;28;20201;-80
2020/12/24 04:13:04;;;;;;;6.00;1.67;;;12.70;99.90;;;;;;5074984;28;20198;-80
2020/12/24 04:15:30;;;;;;;3.03;1.70;;;12.70;99.90;;;;;;5085723;28;20190;-81
2020/12/24 04:17:56;;;;;;;6.28;1.55;;;12.70;99.90;;;;;;5095221;28;20242;-80
2020/12/24 04:20:23;;;;;;;9.50;1.85;;;12.60;99.90;;;;;;5094813;28;20274;-80
2020/12/24 04:22:50;;;;;;;7.75;1.98;;;12.70;99.90;;;;;;5095076;28;20208;-80
2020/12/24 04:25:16;;;;;;;5.57;2.05;;;12.70;99.90;;;;;;5086013;28;20191;-80
2020/12/24 04:27:42;;;;;;;7.72;1.88;;;12.80;99.90;;;;;;5074699;28;20216;-81
2020/12/24 04:30:08;;;;;;;8.43;1.80;;;12.80;99.90;;;;;;5074695;28;20209;-81
2020/12/24 04:32:35;;;;;;;6.47;2.10;;;12.80;99.90;;;;;;5093306;28;20205;-80
2020/12/24 04:35:02;;;;;;;4.18;1.75;;;12.80;99.90;;;;;;5094914;28;20682;-80
2020/12/24 04:37:29;;;;;;;8.07;1.75;;;12.80;99.90;;;;;;5087680;28;20191;-80
2020/12/24 04:39:55;;;;;;;8.27;2.05;;;12.80;99.90;;;;;;5074203;28;20230;-80
2020/12/24 04:42:22;;;;;;;7.75;1.98;;;12.80;99.90;;;;;;5092013;28;20601;-81
2020/12/24 04:44:49;;;;;;;7.15;1.77;;;12.80;99.90;;;;;;5094655;28;20255;-80
2020/12/24 04:47:17;;;;;;;5.82;2.20;;;12.70;99.90;;;;;;5094679;28;20193;-81
2020/12/24 04:49:43;;;;;;;5.63;1.95;;;12.70;99.90;;;;;;5094490;28;20193;-81
2020/12/24 04:52:09;;;;;;;4.97;2.10;;;12.80;99.90;;;;;;5079870;28;20657;-81
2020/12/24 04:54:38;;;;;;;6.15;2.95;;;12.80;99.90;;;;;;5094528;28;20198;-81
2020/12/24 04:57:07;;;;;;;3.83;1.73;;;12.60;99.90;;;;;;5094127;28;20625;-80
2020/12/24 04:59:34;;;;;;;8.63;1.75;;;12.60;99.90;;;;;;5080859;28;20250;-81
2020/12/24 05:02:01;;;;;;;3.90;1.60;;;12.60;99.90;;;;;;5073926;28;20221;-81
2020/12/24 05:04:27;;;;;;;6.10;1.95;;;12.70;99.90;;;;;;5094347;28;20225;-81
2020/12/24 05:07:00;;;;;;;6.72;2.00;;;12.70;99.90;;;;;;5083824;28;20198;-80
2020/12/24 05:09:27;;;;;;;3.85;1.63;;;12.60;99.90;;;;;;5073800;28;20198;-81
2020/12/24 05:11:54;;;;;;;7.40;2.05;;;12.70;99.90;;;;;;5093211;28;20193;-81
2020/12/24 05:14:22;;;;;;;5.53;2.15;;;12.70;99.90;;;;;;5076160;28;20561;-80
2020/12/24 05:16:59;;;;;;;5.93;1.55;;;12.60;99.90;;;;;;5073853;28;20202;-81
2020/12/24 05:19:26;;;;;;;3.80;1.92;;;12.70;99.90;;;;;;5073529;28;20224;-81
2020/12/24 05:21:53;;;;;;;4.00;1.38;;;12.80;99.90;;;;;;5074465;28;20198;-81
2020/12/24 05:24:24;;;;;;;5.20;2.10;;;12.80;99.90;;;;;;5074683;28;20564;-81
2020/12/24 05:26:51;;;;;;;3.25;1.67;;;12.70;99.90;;;;;;5082050;28;20197;-81
2020/12/24 05:29:18;;;;;;;8.45;1.52;;;12.70;99.90;;;;;;5076541;28;20197;-81
2020/12/24 05:31:45;;;;;;;4.97;2.05;;;12.70;99.90;;;;;;5072889;28;20216;-81
2020/12/24 05:34:21;;;;;;;6.35;2.17;;;12.70;99.90;;;;;;5073518;28;20255;-80
2020/12/24 05:36:47;;;;;;;4.43;1.38;;;12.60;99.90;;;;;;5073556;28;20201;-81
2020/12/24 05:39:14;;;;;;;4.38;1.67;;;12.60;99.90;;;;;;5073428;28;20299;-81
2020/12/24 05:41:40;;;;;;;4.88;1.83;;;12.60;99.90;;;;;;5087674;28;20194;-81
2020/12/24 05:44:09;;;;;;;5.78;2.15;;;12.50;99.90;;;;;;5093718;28;20194;-81
2020/12/24 05:46:44;;;;;;;10.82;3.55;;;12.60;99.90;;;;;;5093552;28;20246;-81
2020/12/24 05:49:12;;;;;;;14.82;2.15;;;12.70;99.90;;;;;;5079337;28;20186;-81
2020/12/24 05:51:39;;;;;;;6.53;1.88;;;12.70;99.90;;;;;;5073376;28;20202;-81
2020/12/24 05:54:05;;;;;;;4.53;1.85;;;12.70;99.90;;;;;;5076469;28;20209;-81
2020/12/24 05:56:33;;;;;;;7.10;1.80;;;12.60;99.90;;;;;;5093373;28;20255;-81
2020/12/24 05:59:03;;;;;;;2.40;1.70;;;12.70;99.90;;;;;;5093464;28;20252;-81
2020/12/24 06:01:36;;;;;;;4.55;1.58;;;12.70;99.90;;;;;;5080275;28;20210;-81
2020/12/24 06:04:05;;;;;;;8.45;2.08;;;12.60;99.90;;;;;;5073381;28;20193;-81
2020/12/24 06:06:42;;;;;;;9.10;1.92;;;12.60;99.90;;;;;;5075102;28;20193;-81
2020/12/24 06:09:16;;;;;;;2.88;1.50;;;12.70;99.90;;;;;;5093238;28;20205;-81
2020/12/24 06:11:50;;;;;;;3.90;1.65;;;12.70;99.90;;;;;;5090049;28;20202;-81
2020/12/24 06:14:32;;;;;;;6.45;1.60;;;12.70;99.90;;;;;;5089044;28;20640;-81
2020/12/24 06:17:06;;;;;;;4.20;1.73;;;12.60;99.90;;;;;;5092410;28;20242;-81
2020/12/24 06:19:40;;;;;;;4.55;2.08;;;12.60;99.90;;;;;;5093360;28;20220;-81
2020/12/24 06:22:07;;;;;;;6.88;2.10;;;12.50;99.90;;;;;;5093161;28;20197;-81
2020/12/24 06:24:35;;;;;;;4.45;1.85;;;12.50;99.90;;;;;;5093173;28;20198;-81
2020/12/24 06:27:09;;;;;;;5.78;2.38;;;12.50;99.90;;;;;;5093246;28;20197;-81
2020/12/24 06:29:40;;;;;;;5.50;1.65;;;12.50;99.90;;;;;;5093029;28;20194;-81
2020/12/24 06:32:09;;;;;;;4.65;1.55;;;12.50;99.90;;;;;;5093176;28;20750;-81
2020/12/24 06:34:40;;;;;;;6.50;1.83;;;12.60;99.90;;;;;;5092927;28;20532;-81
2020/12/24 06:37:15;;;;;;;4.05;1.58;;;12.60;99.90;;;;;;5093245;28;20254;-81
2020/12/24 06:39:43;;;;;;;4.75;1.65;;;12.60;99.90;;;;;;5092904;28;20225;-81
2020/12/24 06:42:43;;;;;;;6.28;2.15;;;12.60;99.90;;;;;;5094099;28;20266;-81
2020/12/24 06:45:32;;;;;;;4.13;1.70;;;12.60;99.90;;;;;;5093767;28;20612;-81
2020/12/24 06:48:18;;;;;;;5.35;1.90;;;12.40;99.90;;;;;;5096767;28;20195;-81
2020/12/24 06:50:46;;;;;;;6.20;1.73;;;12.40;99.90;;;;;;5096755;28;20550;-80
2020/12/24 06:53:27;;;;;;;10.82;2.40;;;12.50;99.90;;;;;;5096704;28;20205;-81
2020/12/24 06:56:22;;;;;;;3.33;1.90;;;12.60;99.90;;;;;;5096574;28;20193;-81
2020/12/24 06:58:54;;;;;;;4.20;1.70;;;12.60;99.90;;;;;;5096668;28;20217;-81
2020/12/24 07:01:21;;;;;;;8.00;2.30;;;12.60;99.90;;;;;;5096809;28;20217;-81
2020/12/24 07:03:48;;;;;;;6.43;2.88;;;12.60;99.90;;;;;;5096715;28;20223;-81
2020/12/24 07:06:53;;;;;;;7.15;2.58;;;12.50;99.90;;;;;;5096390;28;20648;-80
2020/12/24 07:09:45;;;;;;;5.28;2.08;;;12.50;99.90;;;;;;5096480;28;20197;-80
2020/12/24 07:12:32;;;;;;;6.70;2.28;;;12.50;99.90;;;;;;5096476;28;20293;-80
2020/12/24 07:15:23;;;;;;;8.48;2.25;;;12.40;99.90;;;;;;5096394;28;20254;-80
2020/12/24 07:17:51;;;;;;;4.78;1.92;;;12.40;99.90;;;;;;5096668;28;20251;-80
2020/12/24 07:20:18;;;;;;;8.82;2.25;;;12.50;99.90;;;;;;5096272;28;20243;-80
2020/12/24 07:22:47;;;;;;;2.50;1.55;;;12.40;99.90;;;;;;5096381;28;20198;-80
2020/12/24 07:25:13;;;;;;;3.20;0.82;;;12.20;99.90;;;;;;5096413;28;20246;-80
2020/12/24 07:27:48;;;;;;;3.42;1.08;;;11.80;99.90;;;;;;5095990;28;20193;-80
2020/12/24 07:30:14;;;;;;;7.47;1.02;;;11.50;99.90;;;;;;5096004;28;20656;-80
2020/12/24 07:32:41;;;;;;;1.33;1.10;;;11.40;99.90;;;;;;5095958;28;20197;-80
2020/12/24 07:35:08;;;;;;;1.02;0.80;;;11.40;99.90;;;;;;5095991;28;20545;-80
2020/12/24 07:37:36;;;;;;;1.00;0.80;;;11.20;99.90;;;;;;5095974;28;20198;-80
2020/12/24 07:40:03;;;;;;;1.75;1.00;;;10.90;99.90;;;;;;5096021;28;20217;-80
2020/12/24 07:42:29;;;;;;;1.98;1.20;;;10.60;99.90;;;;;;5095857;28;20553;-80
2020/12/24 07:44:55;;;;;;;1.27;1.15;;;10.40;99.90;;;;;;5096204;28;20190;-80
2020/12/24 07:47:22;;;;;;;1.10;0.90;;;10.20;99.90;;;;;;5095806;28;20270;-83
2020/12/24 07:49:49;;;;;;;1.20;0.90;;;9.90;99.90;;;;;;5095582;28;20197;-81
2020/12/24 07:52:16;;;;;;;1.35;1.25;;;9.90;99.90;;;;;;5095597;28;20731;-80
2020/12/24 07:54:43;;;;;;;1.40;1.30;;;10.00;99.90;;;;;;5080694;28;20194;-81
2020/12/24 07:57:10;;;;;;;1.60;1.50;;;9.90;99.90;;;;;;5093287;28;20271;-86
2020/12/24 07:59:36;;;;;;;1.77;1.33;;;9.60;99.90;;;;;;5094055;28;20225;-82
2020/12/24 08:02:03;;;;;;;1.85;1.75;;;9.40;99.90;;;;;;5094769;28;20217;-82
2020/12/24 08:04:30;;;;;;;1.80;1.70;;;9.30;99.90;;;;;;5094151;28;20197;-82
2020/12/24 08:06:56;;;;;;;2.05;1.70;;;9.00;99.90;;;;;;5094576;28;20198;-81
2020/12/24 08:09:22;;;;;;;1.65;1.55;;;9.00;99.90;;;;;;5096218;28;20613;-90
2020/12/24 08:11:54;;;;;;;2.20;1.80;;;8.90;99.90;;;;;;5101969;28;20190;-87
2020/12/24 08:14:22;;;;;;;1.52;1.42;;;8.90;99.90;;;;;;5095034;28;20190;-82
2020/12/24 08:16:50;;;;;;;1.35;1.25;;;8.90;99.90;;;;;;5093562;28;20216;-80
2020/12/24 08:19:23;;;;;;;1.80;1.30;;;8.90;99.90;;;;;;5094787;28;20294;-79
2020/12/24 08:22:00;;;;;;;1.50;1.40;;;9.00;99.90;;;;;;5074911;28;20290;-80
2020/12/24 08:24:27;;;;;;;2.30;1.70;;;9.00;99.90;;;;;;5074545;28;20209;-80
2020/12/24 08:26:54;;;;;;;1.50;1.40;;;9.00;99.90;;;;;;5074697;28;20198;-81
2020/12/24 08:29:22;;;;;;;1.42;1.33;;;9.00;99.90;;;;;;5082155;28;20568;-82
2020/12/24 08:31:48;;;;;;;1.50;1.25;;;8.80;99.90;;;;;;5094660;28;20218;-83
2020/12/24 08:34:14;;;;;;;1.50;1.35;;;8.50;99.90;;;;;;5094565;28;20562;-80
2020/12/24 08:36:43;;;;;;;1.45;1.35;;;8.40;99.90;;;;;;5094769;28;20202;-80
2020/12/24 08:39:11;;;;;;;1.70;1.33;;;8.50;99.90;;;;;;5093886;28;20222;-81
2020/12/24 08:41:40;;;;;;;1.60;1.45;;;8.60;99.90;;;;;;5093756;28;20198;-82
2020/12/24 08:44:06;;;;;;;1.83;1.65;;;8.70;99.90;;;;;;5094205;28;20223;-81
2020/12/24 08:46:33;;;;;;;1.60;1.38;;;8.70;99.90;;;;;;5094446;28;20544;-81
2020/12/24 08:49:18;;;;;;;2.00;1.80;;;8.70;99.90;;;;;;5094279;28;20691;-81
2020/12/24 08:51:46;;;;;;;2.20;2.00;;;8.70;99.90;;;;;;5094410;28;20194;-80
2020/12/24 08:54:14;;;;;;;2.90;1.63;;;8.80;99.90;;;;;;5094065;28;20205;-81
2020/12/24 08:56:42;;;;;;;2.08;1.88;;;8.80;99.90;;;;;;5094036;28;20226;-82
2020/12/24 08:59:09;;;;;;;1.98;1.85;;;8.80;99.90;;;;;;5094097;28;20221;-83
2020/12/24 09:01:41;;;;;;;1.90;1.48;;;8.70;99.90;;;;;;5092527;28;20221;-82
2020/12/24 09:04:11;;;;;;;1.65;1.45;;;8.70;99.90;;;;;;5093904;28;20197;-84
2020/12/24 09:06:38;;;;;;;2.60;1.80;;;8.60;99.90;;;;;;5093355;28;20248;-84
2020/12/24 09:09:04;;;;;;;4.20;1.75;;;8.70;99.90;;;;;;5094364;28;20596;-84
2020/12/24 09:11:31;;;;;;;2.28;1.65;;;8.70;99.90;;;;;;5094382;28;20194;-85
2020/12/24 09:13:58;;;;;;;1.73;1.63;;;8.80;99.90;;;;;;5094076;28;20193;-85
2020/12/24 09:16:25;;;;;;;2.10;1.90;;;8.80;99.90;;;;;;5094337;28;20219;-84
2020/12/24 09:19:02;;;;;;;2.25;2.05;;;8.80;99.90;;;;;;5093979;28;20303;-86
2020/12/24 09:21:28;;;;;;;2.58;2.38;;;8.90;99.90;;;;;;5094292;28;20262;-82
2020/12/24 09:24:04;;;;;;;2.60;2.40;;;8.90;99.90;;;;;;5093804;28;20565;-81
2020/12/24 09:26:31;;;;;;;1.88;1.67;;;9.00;99.90;;;;;;5093134;28;20205;-82
2020/12/24 09:28:57;;;;;;;2.15;2.05;;;9.20;99.90;;;;;;5092862;28;20204;-82
2020/12/24 09:31:23;;;;;;;1.73;1.60;;;9.20;99.90;;;;;;5093574;28;20218;-83
2020/12/24 09:33:49;;;;;;;1.90;1.70;;;9.20;99.90;;;;;;5093719;28;20561;-86
2020/12/24 09:36:16;;;;;;;2.08;1.80;;;9.20;99.90;;;;;;5094093;28;20198;-84
2020/12/24 09:38:42;;;;;;;1.85;1.75;;;9.30;99.90;;;;;;5093784;28;20265;-84
2020/12/24 09:41:09;;;;;;;2.35;2.15;;;9.40;99.90;;;;;;5093761;28;20201;-83
2020/12/24 09:43:35;;;;;;;2.00;1.90;;;9.30;99.90;;;;;;5093376;28;20205;-81
2020/12/24 09:46:02;;;;;;;1.85;1.60;;;9.40;99.90;;;;;;5093719;28;20193;-83
2020/12/24 09:48:28;;;;;;;2.20;1.80;;;9.50;99.90;;;;;;5091982;28;20648;-82
2020/12/24 09:50:54;;;;;;;3.72;2.20;;;9.50;99.90;;;;;;5093255;28;20200;-82
2020/12/24 09:53:21;;;;;;;2.20;2.00;;;9.50;99.90;;;;;;5086292;28;20191;-83
2020/12/24 09:55:47;;;;;;;2.85;2.53;;;9.50;99.90;;;;;;5081867;28;20194;-87
2020/12/24 09:58:13;;;;;;;2.30;2.10;;;9.50;99.90;;;;;;5087032;28;20235;-83
2020/12/24 10:00:40;;;;;;;1.90;1.70;;;9.60;99.90;;;;;;5087242;28;20236;-83
2020/12/24 10:03:06;;;;;;;3.97;1.98;;;9.70;99.90;;;;;;5085356;28;20223;-83
2020/12/24 10:05:32;;;;;;;3.38;2.17;;;9.70;99.90;;;;;;5089075;28;20193;-81
2020/12/24 10:07:58;;;;;;;1.83;1.73;;;9.70;99.90;;;;;;5092816;28;20209;-84
2020/12/24 10:10:25;;;;;;;1.95;1.85;;;9.70;99.90;;;;;;5093134;28;20612;-81
2020/12/24 10:12:52;;;;;;;2.05;1.83;;;9.70;99.90;;;;;;5092713;28;20200;-82
2020/12/24 10:15:18;;;;;;;2.40;1.98;;;9.60;99.90;;;;;;5092990;28;20193;-84
2020/12/24 10:17:44;;;;;;;1.90;1.80;;;9.60;99.90;;;;;;5094994;28;20208;-81
2020/12/24 10:20:10;;;;;;;1.60;1.50;;;9.70;99.90;;;;;;5097202;28;20688;-83
2020/12/24 10:22:36;;;;;;;1.92;1.83;;;9.70;99.90;;;;;;5096972;28;20206;-83
2020/12/24 10:25:03;;;;;;;1.90;1.70;;;9.70;99.90;;;;;;5096366;28;20559;-85
2020/12/24 10:27:30;;;;;;;1.95;1.83;;;9.80;99.90;;;;;;5097086;28;20189;-84
2020/12/24 10:29:56;;;;;;;1.55;1.45;;;9.80;99.90;;;;;;5085128;28;20197;-83
2020/12/24 10:32:22;;;;;;;1.83;1.70;;;9.90;99.90;;;;;;5091412;28;20238;-85
2020/12/24 10:34:49;;;;;;;2.00;1.90;;;9.90;99.90;;;;;;5096829;28;20201;-84
2020/12/24 10:37:15;;;;;;;2.13;1.92;;;9.90;99.90;;;;;;5096822;28;20198;-85
2020/12/24 10:39:41;;;;;;;2.72;2.53;;;9.90;99.90;;;;;;5096875;28;20221;-86
2020/12/24 10:42:07;;;;;;;2.97;1.80;;;9.90;99.90;;;;;;5096615;28;20657;-84
2020/12/24 10:44:34;;;;;;;2.47;2.28;;;9.90;99.90;;;;;;5096676;28;20202;-83
2020/12/24 10:47:01;;;;;;;1.92;1.70;;;10.10;99.90;;;;;;5096727;28;20198;-84
2020/12/24 10:49:27;;;;;;;4.05;2.00;;;10.00;99.90;;;;;;5096653;28;20243;-84
2020/12/24 10:51:55;;;;;;;2.75;2.55;;;10.00;99.90;;;;;;5096442;28;20219;-84
2020/12/24 10:54:21;;;;;;;2.20;2.00;;;9.90;99.90;;;;;;5096601;28;20197;-85
2020/12/24 10:56:48;;;;;;;2.50;2.30;;;9.80;99.90;;;;;;5096151;28;20225;-85
2020/12/24 10:59:15;;;;;;;2.05;1.85;;;9.80;99.90;;;;;;5096636;28;20221;-84
2020/12/24 11:01:45;;;;;;;2.40;2.20;;;9.80;99.90;;;;;;5096152;28;20240;-84
2020/12/24 11:04:12;;;;;;;2.50;2.30;;;9.80;99.90;;;;;;5096330;28;20194;-85
2020/12/24 11:06:42;;;;;;;2.47;2.25;;;9.80;99.90;;;;;;5096409;28;20656;-83
2020/12/24 11:09:08;;;;;;;2.95;2.75;;;9.80;99.90;;;;;;5096154;28;20197;-84
2020/12/24 11:11:35;;;;;;;3.35;3.05;;;9.80;99.90;;;;;;5095998;28;20189;-84
2020/12/24 11:14:01;;;;;;;3.33;3.03;;;9.70;99.90;;;;;;5096276;28;20713;-83
2020/12/24 11:16:27;;;;;;;7.05;4.78;;;9.80;99.90;;;;;;5095937;28;20197;-82
2020/12/24 11:18:54;;;;;;;4.13;3.83;;;9.70;99.90;;;;;;5095383;28;20197;-84
2020/12/24 11:21:21;;;;;;;4.60;4.20;;;9.70;99.90;;;;;;5095316;28;20247;-85
2020/12/24 11:23:49;;;;;;;6.10;5.22;;;9.60;99.90;;;;;;5095762;28;20198;-83
2020/12/24 11:26:20;;;;;;;6.43;4.88;;;9.60;99.90;;;;;;5095875;28;20213;-83
2020/12/24 11:28:46;;;;;;;6.50;5.85;;;9.70;99.90;;;;;;5094958;28;20201;-83
2020/12/24 11:31:13;;;;;;;9.43;5.70;;;9.80;99.90;;;;;;5095510;28;20210;-83
2020/12/24 11:33:40;;;;;;;7.82;5.50;;;9.90;99.90;;;;;;5092665;28;20198;-83
2020/12/24 11:36:07;;;;;;;6.22;5.72;;;9.90;99.90;;;;;;5095451;28;20246;-86
2020/12/24 11:38:33;;;;;;;6.43;5.85;;;10.00;99.90;;;;;;5095546;28;20193;-83
2020/12/24 11:41:00;;;;;;;6.43;5.82;;;10.00;99.90;;;;;;5095561;28;20577;-82
2020/12/24 11:43:26;;;;;;;8.43;6.20;;;10.00;99.90;;;;;;5095280;28;20197;-83
2020/12/24 11:45:53;;;;;;;6.20;5.53;;;9.90;99.90;;;;;;5095188;28;20203;-82
2020/12/24 11:48:19;;;;;;;6.80;6.15;;;9.80;99.90;;;;;;5082251;28;20194;-83
2020/12/24 11:50:45;;;;;;;7.88;6.55;;;9.90;99.90;;;;;;5090408;28;20186;-82
2020/12/24 11:53:12;;;;;;;8.55;6.13;;;9.90;99.90;;;;;;5094858;28;20535;-83
2020/12/24 11:55:38;;;;;;;6.90;5.45;;;10.00;99.90;;;;;;5094820;28;20261;-84
2020/12/24 11:58:04;;;;;;;7.10;6.40;;;10.00;99.90;;;;;;5095495;28;20200;-83
2020/12/24 12:00:31;;;;;;;5.35;4.88;;;10.00;99.90;;;;;;5095095;28;20229;-83
2020/12/24 12:02:57;;;;;;;5.45;4.97;;;9.90;99.90;;;;;;5094914;28;20194;-84
2020/12/24 12:05:23;;;;;;;5.30;4.80;;;9.80;99.90;;;;;;5095018;28;20228;-84
2020/12/24 12:07:49;;;;;;;6.35;5.03;;;9.90;99.90;;;;;;5095142;28;20198;-82
2020/12/24 12:10:16;;;;;;;4.90;3.60;;;9.90;99.90;;;;;;5095233;28;20196;-83
2020/12/24 12:12:42;;;;;;;3.75;3.45;;;10.00;99.90;;;;;;5094750;28;20202;-83
2020/12/24 12:15:09;;;;;;;4.00;3.70;;;9.70;99.90;;;;;;5094675;28;20197;-84
2020/12/24 12:17:35;;;;;;;4.10;3.80;;;9.70;99.90;;;;;;5094732;28;20202;-83
2020/12/24 12:20:01;;;;;;;3.30;3.00;;;9.80;99.90;;;;;;5094736;28;20221;-83
2020/12/24 12:22:27;;;;;;;3.20;2.90;;;9.90;99.90;;;;;;5094844;28;20206;-83
2020/12/24 12:24:53;;;;;;;4.35;4.05;;;10.00;99.90;;;;;;5094675;28;20239;-83
2020/12/24 12:27:20;;;;;;;4.97;3.30;;;9.90;99.90;;;;;;5094646;28;20204;-82
2020/12/24 12:29:47;;;;;;;6.50;4.50;;;9.90;99.90;;;;;;5094382;28;20201;-82
2020/12/24 12:32:13;;;;;;;3.72;3.38;;;9.90;99.90;;;;;;5094460;28;20194;-82
2020/12/24 12:34:39;;;;;;;4.30;3.55;;;10.00;99.90;;;;;;5094347;28;20671;-83
2020/12/24 12:37:05;;;;;;;3.40;3.10;;;10.00;99.90;;;;;;5094585;28;20239;-83
2020/12/24 12:39:31;;;;;;;3.65;2.97;;;10.10;99.90;;;;;;5094394;28;20584;-83
2020/12/24 12:41:57;;;;;;;3.63;3.33;;;10.10;99.90;;;;;;5094499;28;20194;-84
2020/12/24 12:44:24;;;;;;;3.65;3.00;;;10.20;99.90;;;;;;5094305;28;20644;-83
2020/12/24 12:46:51;;;;;;;2.85;2.53;;;10.30;99.90;;;;;;5094320;28;20190;-82
2020/12/24 12:49:17;;;;;;;8.75;2.88;;;10.30;99.90;;;;;;5094310;28;20656;-83
2020/12/24 12:51:43;;;;;;;3.58;3.25;;;10.30;99.90;;;;;;5093989;28;20275;-83
2020/12/24 12:54:09;;;;;;;4.78;2.83;;;10.30;99.90;;;;;;5093908;28;20204;-82